Ambierville, New York
Current Conditions -  °F | °C
As of 3:14 AM on Friday 24 Oct 2014 (Local Time) from KBGM Reporting Station
Overcast Overcast  
Wind Chill:   Ceiling: 1000
Heat Index:   Visibility: 10mi
Dew Point:   Wind: 12mph
Humidity: 86%   Direction: 330°NNW
Pressure: 29.88"   Gusts: 23mph
Location:  42.5358°N, 75.3475°W
Report Text: KBGM 240714Z AUTO 33010G20KT 10SM OVC010 08/06 A2988 RMK AO2 T00780056
Loading
Personal Weather Stations






























Interactive Weather Map New forecast layout! Learn more

10-Day Weather Forecast

Advertisements
Track Severe Weather on mobile